Time;durP1;ratioP1;P1;durP2;ratioP2;P2;SDS_P1;SDS_P2;PMS_P1;PMS_P2;Temp;Humidity;BMP_temperature;BMP_pressure;BME280_temperature;BME280_humidity;BME280_pressure;Samples;Min_cycle;Max_cycle;Signal;HPM_P1;HPM_P2
2024/04/21 00:01:20;;;;;;;3.90;2.90;;;;;;;9.03;70.64;98884.45;107040;1260;67928;-39
2024/04/21 00:03:47;;;;;;;4.40;2.80;;;;;;;9.05;70.88;98883.31;107053;1260;71487;-40
2024/04/21 00:06:14;;;;;;;4.70;2.80;;;;;;;9.01;71.34;98881.23;107027;1260;61138;-39
2024/04/21 00:08:41;;;;;;;4.10;2.80;;;;;;;8.96;71.80;98878.90;107068;1260;60406;-39
2024/04/21 00:11:08;;;;;;;7.30;3.30;;;;;;;8.93;72.28;98877.46;107095;1257;75158;-39
2024/04/21 00:13:35;;;;;;;4.30;2.50;;;;;;;8.89;72.59;98872.70;107292;1262;67956;-39
2024/04/21 00:16:01;;;;;;;3.80;2.20;;;;;;;8.91;72.70;98871.65;107199;1262;73303;-39
2024/04/21 00:18:29;;;;;;;6.60;2.70;;;;;;;8.93;72.76;98870.83;107204;1262;60652;-39
2024/04/21 00:20:55;;;;;;;3.10;2.50;;;;;;;8.90;73.23;98874.78;107216;1257;60396;-39
2024/04/21 00:23:22;;;;;;;8.90;2.70;;;;;;;8.85;73.84;98870.14;107213;1257;75039;-39
2024/04/21 00:25:56;;;;;;;3.20;2.50;;;;;;;8.81;74.00;98868.29;107200;1257;67375;-39
2024/04/21 00:28:23;;;;;;;4.70;2.70;;;;;;;8.76;74.37;98857.94;107175;1261;73236;-39
2024/04/21 00:30:50;;;;;;;2.70;2.20;;;;;;;8.79;74.75;98849.80;107219;1257;60622;-38
2024/04/21 00:33:17;;;;;;;5.90;2.80;;;;;;;8.83;75.05;98837.44;107196;1258;60033;-37
2024/04/21 00:35:44;;;;;;;3.00;2.40;;;;;;;8.82;75.24;98824.06;107249;1257;74989;-38
2024/04/21 00:38:11;;;;;;;5.50;2.90;;;;;;;8.77;75.67;98811.08;107168;1262;68143;-37
2024/04/21 00:40:38;;;;;;;4.10;2.70;;;;;;;8.70;76.19;98799.98;107028;1257;73109;-37
2024/04/21 00:43:04;;;;;;;4.00;2.70;;;;;;;8.64;76.61;98790.77;107083;1262;61822;-37
2024/04/21 00:45:31;;;;;;;5.90;2.50;;;;;;;8.63;76.99;98789.30;107092;1262;61185;-37
2024/04/21 00:48:06;;;;;;;4.10;2.60;;;;;;;8.63;77.20;98781.42;107106;1261;74356;-38
2024/04/21 00:50:32;;;;;;;2.90;2.30;;;;;;;8.61;77.68;98783.32;107231;1262;67736;-38
2024/04/21 00:52:59;;;;;;;4.40;2.70;;;;;;;8.59;78.07;98789.69;107210;1262;73074;-37
2024/04/21 00:55:26;;;;;;;4.60;2.70;;;;;;;8.55;78.32;98786.61;107034;1262;61642;-37
2024/04/21 00:57:53;;;;;;;4.10;2.70;;;;;;;8.56;78.37;98782.55;107208;1257;61218;-38
2024/04/21 01:00:20;;;;;;;3.40;2.60;;;;;;;8.59;78.39;98773.70;106925;1258;73853;-37
2024/04/21 01:02:47;;;;;;;4.70;2.70;;;;;;;8.56;78.74;98770.73;107129;1257;67976;-37
2024/04/21 01:05:14;;;;;;;4.80;3.10;;;;;;;8.51;79.05;98760.61;107158;1257;73242;-37
2024/04/21 01:07:41;;;;;;;6.20;2.90;;;;;;;8.47;79.35;98756.84;107246;1262;61923;-38
2024/04/21 01:10:08;;;;;;;3.20;2.30;;;;;;;8.47;79.58;98756.38;107222;1263;60332;-37
2024/04/21 01:12:41;;;;;;;4.10;2.50;;;;;;;8.51;79.65;98758.92;107221;1257;75047;-37
2024/04/21 01:15:11;;;;;;;4.50;2.70;;;;;;;8.50;79.96;98756.27;107278;1258;67781;-38
2024/04/21 01:17:38;;;;;;;3.30;2.30;;;;;;;8.49;80.14;98758.40;107205;1262;73148;-38
2024/04/21 01:20:06;;;;;;;2.80;2.30;;;;;;;8.47;80.20;98777.13;107219;1258;61089;-38
2024/04/21 01:22:33;;;;;;;2.50;2.20;;;;;;;8.47;80.14;98786.17;107238;1257;61137;-38
2024/04/21 01:25:00;;;;;;;3.80;2.30;;;;;;;8.49;80.10;98781.11;107201;1257;74417;-38
2024/04/21 01:27:27;;;;;;;5.10;2.80;;;;;;;8.49;80.36;98768.52;107259;1262;67807;-38
2024/04/21 01:29:54;;;;;;;5.70;2.50;;;;;;;8.46;80.66;98754.03;107130;1257;73197;-38
2024/04/21 01:32:21;;;;;;;3.40;2.50;;;;;;;8.43;80.91;98744.40;107080;1257;61130;-38
2024/04/21 01:34:48;;;;;;;3.30;2.60;;;;;;;8.45;80.93;98739.27;107143;1261;61082;-38
2024/04/21 01:37:18;;;;;;;4.70;2.80;;;;;;;8.50;80.89;98729.77;107173;1263;75207;-38
2024/04/21 01:39:44;;;;;;;;;;;;;;;8.47;81.05;98736.46;107215;1257;68726;-38
2024/04/21 01:42:11;;;;;;;5.40;2.80;;;;;;;8.41;81.32;98735.66;107120;1257;73205;-38
2024/04/21 01:44:38;;;;;;;3.70;2.50;;;;;;;8.38;81.53;98734.83;107189;1258;62106;-38
2024/04/21 01:47:04;;;;;;;4.40;2.50;;;;;;;8.37;81.54;98737.14;107145;1258;60129;-38
2024/04/21 01:49:31;;;;;;;4.40;2.60;;;;;;;8.38;81.52;98744.85;107215;1261;75159;-38
2024/04/21 01:51:58;;;;;;;3.00;2.30;;;;;;;8.37;81.69;98757.03;107241;1262;68556;-38
2024/04/21 01:54:25;;;;;;;4.00;2.40;;;;;;;8.34;82.14;98762.14;107232;1263;72618;-38
2024/04/21 01:56:53;;;;;;;3.50;3.10;;;;;;;8.32;82.26;98754.64;107235;1259;61234;-38
2024/04/21 01:59:20;;;;;;;3.80;2.40;;;;;;;8.35;82.23;98753.91;107241;1259;61311;-38
2024/04/21 02:01:47;;;;;;;3.80;2.40;;;;;;;8.38;82.06;98749.12;107256;1258;74654;-39
2024/04/21 02:04:14;;;;;;;3.80;2.60;;;;;;;8.35;82.34;98747.28;107213;1263;66766;-38
2024/04/21 02:06:41;;;;;;;3.90;2.70;;;;;;;8.30;82.57;98725.19;107174;1258;73338;-38
2024/04/21 02:09:08;;;;;;;5.50;2.70;;;;;;;8.23;82.66;98698.59;107201;1263;60902;-38
2024/04/21 02:11:34;;;;;;;3.50;2.30;;;;;;;8.23;82.70;98684.17;107225;1257;60295;-38
2024/04/21 02:14:01;;;;;;;4.10;2.60;;;;;;;8.24;82.70;98689.13;107247;1257;75190;-38
2024/04/21 02:16:28;;;;;;;3.40;2.20;;;;;;;8.22;82.98;98704.58;107257;1259;67881;-38
2024/04/21 02:18:55;;;;;;;2.70;2.30;;;;;;;8.19;83.23;98701.52;107215;1261;73275;-38
2024/04/21 02:21:22;;;;;;;5.20;2.40;;;;;;;8.18;83.30;98706.29;107135;1262;61134;-38
2024/04/21 02:23:48;;;;;;;4.80;2.40;;;;;;;8.18;83.03;98712.85;107219;1258;60394;-39
2024/04/21 02:26:15;;;;;;;2.60;2.20;;;;;;;8.18;82.93;98705.52;107254;1262;75028;-38
2024/04/21 02:28:42;;;;;;;3.70;2.30;;;;;;;8.12;82.99;98695.48;107210;1261;68492;-38
2024/04/21 02:31:10;;;;;;;5.00;2.30;;;;;;;8.04;83.35;98672.50;107227;1257;73344;-38
2024/04/21 02:33:37;;;;;;;4.70;2.20;;;;;;;8.00;83.66;98662.86;107214;1257;61672;-38
2024/04/21 02:36:04;;;;;;;3.10;1.90;;;;;;;8.02;83.60;98662.98;107277;1257;61247;-38
2024/04/21 02:38:31;;;;;;;3.20;1.90;;;;;;;8.05;83.44;98666.33;107275;1263;74016;-38
2024/04/21 02:40:58;;;;;;;2.40;2.20;;;;;;;8.02;83.51;98683.56;107271;1257;68012;-38
2024/04/21 02:43:25;;;;;;;2.20;1.80;;;;;;;7.97;83.60;98683.55;107252;1258;73128;-38
2024/04/21 02:45:52;;;;;;;3.00;1.90;;;;;;;7.92;83.69;98673.04;107212;1257;61709;-38
2024/04/21 02:48:18;;;;;;;2.40;1.90;;;;;;;7.91;83.58;98652.52;107231;1260;61358;-38
2024/04/21 02:50:45;;;;;;;2.50;1.90;;;;;;;7.91;83.39;98650.95;107182;1258;75068;-38
2024/04/21 02:53:12;;;;;;;3.30;1.50;;;;;;;7.86;83.72;98649.80;107174;1261;67830;-38
2024/04/21 02:55:42;;;;;;;2.30;1.50;;;;;;;7.80;83.87;98648.70;107240;1261;73323;-38
2024/04/21 02:58:09;;;;;;;3.50;1.70;;;;;;;7.74;83.55;98643.95;107220;1257;60466;-39
2024/04/21 03:00:37;;;;;;;3.10;1.80;;;;;;;7.74;83.44;98625.23;107203;1257;61050;-38
2024/04/21 03:03:04;;;;;;;4.10;1.60;;;;;;;7.69;83.34;98622.20;107221;1261;75260;-38
2024/04/21 03:05:33;;;;;;;3.10;1.50;;;;;;;7.62;83.39;98619.84;107270;1257;67999;-38
2024/04/21 03:08:00;;;;;;;1.60;1.50;;;;;;;7.57;83.81;98594.01;107243;1261;73096;-39
2024/04/21 03:10:27;;;;;;;3.60;1.40;;;;;;;7.56;83.84;98561.55;107205;1257;61765;-38
2024/04/21 03:12:55;;;;;;;2.30;1.70;;;;;;;7.57;83.80;98560.33;107255;1263;61132;-38
2024/04/21 03:15:21;;;;;;;2.30;1.60;;;;;;;7.52;83.85;98557.62;107083;1262;75158;-38
2024/04/21 03:17:49;;;;;;;2.70;2.00;;;;;;;7.41;84.18;98540.33;107055;1258;66682;-38
2024/04/21 03:20:16;;;;;;;2.40;1.60;;;;;;;7.35;84.75;98530.28;107025;1258;73068;-38
2024/04/21 03:22:43;;;;;;;1.60;1.50;;;;;;;7.34;84.98;98524.41;107098;1263;61857;-38
2024/04/21 03:25:10;;;;;;;2.30;1.80;;;;;;;7.32;85.38;98527.30;107183;1262;60908;-38
2024/04/21 03:27:37;;;;;;;2.40;1.60;;;;;;;7.31;85.49;98513.95;107203;1262;75120;-38
2024/04/21 03:30:04;;;;;;;2.00;1.60;;;;;;;7.28;85.63;98505.17;107267;1257;67862;-38
2024/04/21 03:32:31;;;;;;;2.60;1.70;;;;;;;7.27;86.08;98508.48;107257;1257;72688;-38
2024/04/21 03:34:58;;;;;;;2.70;1.70;;;;;;;7.24;86.49;98499.73;107217;1263;61670;-38
2024/04/21 03:37:25;;;;;;;2.90;1.70;;;;;;;7.21;86.54;98486.11;107235;1258;60369;-38
2024/04/21 03:39:52;;;;;;;2.30;1.50;;;;;;;7.21;86.76;98485.20;107276;1258;75037;-39
2024/04/21 03:42:19;;;;;;;1.90;1.60;;;;;;;7.24;86.77;98484.95;107253;1262;68195;-38
2024/04/21 03:44:45;;;;;;;1.70;1.40;;;;;;;7.22;86.97;98476.42;107203;1262;73281;-38
2024/04/21 03:47:12;;;;;;;2.50;1.60;;;;;;;7.18;87.09;98468.05;107266;1257;61129;-38
2024/04/21 03:49:39;;;;;;;3.00;1.30;;;;;;;7.18;87.03;98464.10;107247;1258;61163;-38
2024/04/21 03:52:06;;;;;;;1.80;1.40;;;;;;;7.17;86.61;98458.39;107094;1258;75049;-38
2024/04/21 03:54:33;;;;;;;1.20;1.10;;;;;;;7.19;86.47;98440.64;107237;1263;68465;-38
2024/04/21 03:57:04;;;;;;;1.30;1.20;;;;;;;7.17;86.50;98414.50;107216;1257;73246;-38
2024/04/21 03:59:32;;;;;;;1.90;1.20;;;;;;;7.11;86.52;98399.54;107192;1263;61185;-38
2024/04/21 04:01:59;;;;;;;1.80;1.30;;;;;;;7.07;86.65;98395.69;107212;1257;60377;-38
2024/04/21 04:04:26;;;;;;;1.20;1.10;;;;;;;7.08;86.73;98403.33;107214;1258;73302;-38
2024/04/21 04:06:53;;;;;;;2.10;1.40;;;;;;;7.08;86.82;98409.80;107208;1257;68012;-38
2024/04/21 04:09:20;;;;;;;2.10;1.50;;;;;;;7.06;86.93;98400.76;107241;1257;73277;-38
2024/04/21 04:11:47;;;;;;;1.70;1.40;;;;;;;7.02;87.34;98382.98;107187;1263;61226;-38
2024/04/21 04:14:14;;;;;;;2.20;1.40;;;;;;;7.01;87.56;98356.24;107215;1262;60309;-38
2024/04/21 04:16:41;;;;;;;1.80;1.50;;;;;;;7.07;87.38;98373.21;107188;1258;75073;-39
2024/04/21 04:19:08;;;;;;;1.70;1.50;;;;;;;7.07;87.75;98391.06;107218;1263;68491;-39
2024/04/21 04:21:35;;;;;;;3.60;1.60;;;;;;;7.05;88.04;98364.33;107243;1258;72651;-39
2024/04/21 04:24:02;;;;;;;1.20;1.10;;;;;;;7.04;88.20;98337.11;107257;1257;61135;-39
2024/04/21 04:26:29;;;;;;;3.10;1.40;;;;;;;7.10;87.96;98334.36;107161;1257;60357;-39
2024/04/21 04:28:57;;;;;;;2.20;1.30;;;;;;;7.15;87.99;98330.37;107195;1258;75153;-39
2024/04/21 04:31:24;;;;;;;1.30;1.20;;;;;;;7.11;88.17;98328.30;107135;1263;68405;-39
2024/04/21 04:33:51;;;;;;;1.30;1.20;;;;;;;7.08;88.47;98321.46;107065;1261;73243;-39
2024/04/21 04:36:18;;;;;;;1.60;1.30;;;;;;;7.08;88.53;98318.48;107133;1258;61147;-39
2024/04/21 04:38:46;;;;;;;1.80;1.00;;;;;;;7.12;88.79;98313.45;107240;1262;61304;-39
2024/04/21 04:41:13;;;;;;;3.00;1.40;;;;;;;7.15;88.73;98307.43;107220;1263;75250;-39
2024/04/21 04:43:39;;;;;;;1.80;1.30;;;;;;;7.14;89.01;98297.17;107192;1262;68596;-39
2024/04/21 04:46:06;;;;;;;1.20;1.00;;;;;;;7.12;89.31;98283.04;107191;1257;73012;-39
2024/04/21 04:48:33;;;;;;;1.80;1.20;;;;;;;7.16;89.40;98272.47;107223;1258;62446;-39
2024/04/21 04:51:01;;;;;;;3.60;1.40;;;;;;;7.19;89.34;98280.45;107179;1258;61228;-39
2024/04/21 04:53:29;;;;;;;1.90;1.20;;;;;;;7.20;89.51;98288.64;107295;1257;75174;-39
2024/04/21 04:55:55;;;;;;;1.30;1.20;;;;;;;7.19;89.49;98292.23;107205;1257;68114;-38
2024/04/21 04:58:22;;;;;;;3.00;1.30;;;;;;;7.18;89.60;98286.27;107211;1257;72741;-37
2024/04/21 05:00:49;;;;;;;1.70;1.20;;;;;;;7.25;89.64;98284.84;107108;1257;62306;-37
2024/04/21 05:03:16;;;;;;;2.20;1.20;;;;;;;7.27;89.53;98290.58;107175;1257;61138;-37
2024/04/21 05:05:43;;;;;;;1.90;1.60;;;;;;;7.26;89.69;98303.50;107212;1257;75143;-37
2024/04/21 05:08:10;;;;;;;1.40;1.30;;;;;;;7.25;89.85;98279.62;107212;1258;67792;-39
2024/04/21 05:10:37;;;;;;;2.00;1.10;;;;;;;7.29;89.82;98238.08;107151;1257;73033;-38
2024/04/21 05:13:04;;;;;;;1.50;1.10;;;;;;;7.34;89.72;98230.77;107208;1257;61995;-38
2024/04/21 05:15:31;;;;;;;2.30;1.10;;;;;;;7.39;89.66;98262.11;107209;1258;60346;-38
2024/04/21 05:17:57;;;;;;;1.50;1.20;;;;;;;7.41;89.77;98266.98;107218;1257;75097;-39
2024/04/21 05:20:24;;;;;;;2.50;1.20;;;;;;;7.40;89.86;98268.44;107226;1263;68143;-38
2024/04/21 05:22:51;;;;;;;1.50;1.20;;;;;;;7.46;89.76;98269.98;107190;1258;71941;-38
2024/04/21 05:25:18;;;;;;;1.70;1.20;;;;;;;7.53;89.62;98231.70;107213;1257;60492;-39
2024/04/21 05:27:45;;;;;;;1.20;1.00;;;;;;;7.53;89.52;98212.66;107236;1257;61442;-39
2024/04/21 05:30:12;;;;;;;1.80;1.40;;;;;;;7.50;89.74;98219.63;107160;1257;75162;-39
2024/04/21 05:32:38;;;;;;;2.00;1.50;;;;;;;7.50;89.81;98213.23;107216;1258;68377;-39
2024/04/21 05:35:07;;;;;;;4.40;1.70;;;;;;;7.56;89.70;98186.80;107178;1261;72275;-39
2024/04/21 05:37:34;;;;;;;2.30;1.70;;;;;;;7.58;89.57;98176.65;107159;1257;61101;-39
2024/04/21 05:40:00;;;;;;;1.40;1.30;;;;;;;7.52;89.74;98182.52;107227;1257;61307;-39
2024/04/21 05:42:28;;;;;;;1.30;1.20;;;;;;;7.49;90.11;98183.33;107222;1264;75253;-39
2024/04/21 05:44:55;;;;;;;1.80;1.40;;;;;;;7.53;90.18;98179.36;107221;1257;67037;-38
2024/04/21 05:47:21;;;;;;;1.20;1.10;;;;;;;7.60;90.14;98176.77;107185;1257;73167;-38
2024/04/21 05:49:48;;;;;;;1.90;1.00;;;;;;;7.60;90.24;98174.91;107020;1262;61417;-38
2024/04/21 05:52:15;;;;;;;1.10;0.90;;;;;;;7.57;90.39;98166.46;107038;1261;60432;-38
2024/04/21 05:54:42;;;;;;;1.00;0.90;;;;;;;7.56;90.60;98150.73;107027;1257;75158;-38
2024/04/21 05:57:09;;;;;;;1.10;1.00;;;;;;;7.61;90.32;98145.33;107142;1258;68122;-38
2024/04/21 05:59:36;;;;;;;0.80;0.80;;;;;;;7.64;90.13;98141.66;107198;1257;73033;-38
2024/04/21 06:02:02;;;;;;;0.90;0.90;;;;;;;7.61;90.01;98131.67;107229;1258;60903;-41
2024/04/21 06:04:30;;;;;;;1.10;0.80;;;;;;;7.56;90.26;98142.33;107178;1257;61011;-38
2024/04/21 06:06:58;;;;;;;1.10;0.90;;;;;;;7.60;90.30;98141.85;107113;1257;75235;-38
2024/04/21 06:09:25;;;;;;;0.80;0.80;;;;;;;7.64;90.43;98144.28;107207;1257;67687;-38
2024/04/21 06:11:52;;;;;;;1.20;1.10;;;;;;;7.63;90.50;98142.19;107169;1258;72320;-38
2024/04/21 06:14:19;;;;;;;0.80;0.80;;;;;;;7.61;90.72;98131.60;107255;1257;61714;-38
2024/04/21 06:16:46;;;;;;;1.10;1.00;;;;;;;7.63;90.79;98120.39;107192;1258;60789;-38
2024/04/21 06:19:13;;;;;;;1.20;0.90;;;;;;;7.67;90.73;98109.55;107245;1257;74871;-38
2024/04/21 06:21:39;;;;;;;1.60;1.00;;;;;;;7.68;90.73;98098.48;107253;1257;68450;-38
2024/04/21 06:24:06;;;;;;;2.00;0.90;;;;;;;7.66;90.89;98097.06;107173;1257;73307;-39
2024/04/21 06:26:33;;;;;;;1.30;0.80;;;;;;;7.66;91.02;98095.83;107168;1258;61841;-39
2024/04/21 06:29:00;;;;;;;1.00;0.80;;;;;;;7.71;90.91;98101.34;107193;1257;59999;-38
2024/04/21 06:31:26;;;;;;;2.20;0.90;;;;;;;7.72;90.86;98095.89;107230;1257;75276;-38
2024/04/21 06:33:53;;;;;;;0.70;0.70;;;;;;;7.63;91.14;98081.23;107227;1257;66412;-39
2024/04/21 06:36:20;;;;;;;1.00;0.90;;;;;;;7.71;91.06;98087.40;107217;1258;73282;-39
2024/04/21 06:38:47;;;;;;;0.90;0.80;;;;;;;7.75;90.91;98079.73;107231;1257;61946;-38
2024/04/21 06:41:14;;;;;;;1.20;1.00;;;;;;;7.74;90.89;98075.26;107232;1257;60427;-38
2024/04/21 06:43:40;;;;;;;0.80;0.80;;;;;;;7.73;91.29;98078.33;107162;1257;75278;-38
2024/04/21 06:46:07;;;;;;;0.90;0.90;;;;;;;7.76;91.34;98082.13;107173;1258;68541;-39
2024/04/21 06:48:34;;;;;;;1.00;0.90;;;;;;;7.80;91.00;98083.16;107149;1258;72880;-38
2024/04/21 06:51:01;;;;;;;1.10;0.80;;;;;;;7.82;91.11;98080.11;107156;1257;60589;-39
2024/04/21 06:53:30;;;;;;;1.10;1.00;;;;;;;7.80;91.11;98073.07;107239;1257;60385;-39
2024/04/21 06:56:01;;;;;;;0.80;0.80;;;;;;;7.82;91.35;98069.93;107213;1258;74723;-39
2024/04/21 06:58:28;;;;;;;0.90;0.70;;;;;;;7.86;91.26;98061.17;107176;1257;67947;-39
2024/04/21 07:00:55;;;;;;;0.90;0.80;;;;;;;7.87;91.16;98063.11;107188;1257;72746;-39
2024/04/21 07:03:22;;;;;;;2.80;0.80;;;;;;;7.89;91.06;98054.57;107212;1257;62073;-39
2024/04/21 07:05:49;;;;;;;0.70;0.70;;;;;;;7.90;91.23;98037.77;107193;1257;61058;-39
2024/04/21 07:08:16;;;;;;;0.50;0.50;;;;;;;7.92;91.33;98017.20;107185;1257;75259;-39
2024/04/21 07:10:43;;;;;;;0.60;0.60;;;;;;;7.94;91.50;98005.72;107182;1257;67952;-39
2024/04/21 07:13:11;;;;;;;1.50;1.00;;;;;;;7.96;91.53;98001.34;107218;1258;72768;-39
2024/04/21 07:15:38;;;;;;;0.90;0.80;;;;;;;7.97;91.61;98013.31;107231;1258;62056;-38
2024/04/21 07:18:05;;;;;;;1.00;0.80;;;;;;;7.99;91.56;98021.17;107190;1257;61131;-39
2024/04/21 07:20:32;;;;;;;1.40;0.90;;;;;;;7.99;91.45;98019.02;106956;1257;144735;-39
2024/04/21 07:25:14;;;;;;;3.60;1.20;;;;;;;8.03;91.53;98020.67;104386;1289;600285;-37
2024/04/21 07:27:51;;;;;;;1.20;1.10;;;;;;;8.03;91.55;98020.45;106611;1266;63162;-38
2024/04/21 07:30:18;;;;;;;1.20;1.10;;;;;;;8.04;91.42;98023.23;106731;1266;59651;-38
2024/04/21 07:32:46;;;;;;;1.40;1.00;;;;;;;8.06;91.37;98030.80;106764;1267;73012;-37
2024/04/21 07:35:14;;;;;;;0.80;0.80;;;;;;;8.09;91.47;98034.45;106803;1266;65505;-37
2024/04/21 07:37:41;;;;;;;0.80;0.80;;;;;;;8.14;91.57;98030.16;106614;1266;185030;-38
2024/04/21 07:40:13;;;;;;;1.40;1.10;;;;;;;8.15;91.43;98022.15;106858;1266;60197;-37
2024/04/21 07:42:41;;;;;;;1.20;0.90;;;;;;;8.14;91.72;98014.66;106892;1264;59638;-37
2024/04/21 07:45:08;;;;;;;1.50;0.90;;;;;;;8.17;91.50;98010.91;106834;1266;71870;-37
2024/04/21 07:47:36;;;;;;;1.10;0.90;;;;;;;8.20;91.62;97997.20;107428;1260;67967;-38
2024/04/21 07:50:04;;;;;;;1.80;0.90;;;;;;;8.24;91.37;97997.36;107262;1256;72751;-39
2024/04/21 07:52:32;;;;;;;1.70;1.00;;;;;;;8.23;91.31;97996.98;107230;1260;62245;-38
2024/04/21 07:55:00;;;;;;;1.10;1.00;;;;;;;8.22;91.55;97998.60;107272;1260;60274;-38
2024/04/21 07:57:27;;;;;;;1.80;1.20;;;;;;;8.24;91.64;98000.30;107221;1255;72998;-38
2024/04/21 07:59:54;;;;;;;2.90;0.90;;;;;;;8.30;91.56;97998.12;107245;1257;70157;-38
2024/04/21 08:02:22;;;;;;;1.20;1.10;;;;;;;8.34;91.30;97993.45;107300;1257;72876;-38
2024/04/21 08:04:52;;;;;;;2.50;1.20;;;;;;;8.35;91.37;97989.20;107431;1260;60431;-38
2024/04/21 08:07:19;;;;;;;1.10;0.90;;;;;;;8.33;91.47;97988.05;107270;1255;60491;-38
2024/04/21 08:09:47;;;;;;;1.30;1.20;;;;;;;8.35;91.59;97981.49;107301;1255;74241;-38
2024/04/21 08:12:15;;;;;;;1.80;1.00;;;;;;;8.40;91.60;97980.36;107267;1260;68364;-38
2024/04/21 08:14:43;;;;;;;1.80;1.00;;;;;;;8.44;91.67;97982.55;107385;1256;72780;-38
2024/04/21 08:17:10;;;;;;;1.10;1.00;;;;;;;8.48;91.41;97987.95;107357;1257;60343;-38
2024/04/21 08:19:37;;;;;;;1.10;1.00;;;;;;;8.47;91.61;97989.98;107178;1257;60346;-38
2024/04/21 08:22:05;;;;;;;1.20;1.10;;;;;;;8.46;91.62;97990.43;107244;1257;76099;-38
2024/04/21 08:24:33;;;;;;;1.50;1.40;;;;;;;8.47;91.55;97986.27;107236;1256;68295;-38
2024/04/21 08:27:00;;;;;;;1.50;1.40;;;;;;;8.50;91.54;97987.52;107207;1261;74894;-38
2024/04/21 08:29:27;;;;;;;1.80;1.40;;;;;;;8.53;91.58;97990.84;107250;1257;61745;-38
2024/04/21 08:31:55;;;;;;;1.40;1.20;;;;;;;8.56;91.50;97996.95;107238;1260;61023;-38
2024/04/21 08:34:27;;;;;;;1.30;1.10;;;;;;;8.57;91.24;97991.63;107261;1262;76087;-38
2024/04/21 08:36:54;;;;;;;1.30;1.20;;;;;;;8.56;91.22;97986.69;107261;1260;69934;-37
2024/04/21 08:39:22;;;;;;;1.70;1.40;;;;;;;8.55;91.36;97988.94;107213;1260;73042;-37
2024/04/21 08:41:50;;;;;;;1.60;1.30;;;;;;;8.55;91.40;97987.15;107218;1261;61959;-37
2024/04/21 08:44:17;;;;;;;2.00;1.40;;;;;;;8.59;91.32;97985.55;107209;1258;60415;-38
2024/04/21 08:46:46;;;;;;;1.40;1.20;;;;;;;8.61;91.31;97986.56;107210;1257;73903;-38
2024/04/21 08:49:17;;;;;;;1.30;1.20;;;;;;;8.62;91.24;97977.15;107066;1258;66342;-38
2024/04/21 08:51:46;;;;;;;1.60;1.30;;;;;;;8.66;91.25;97983.73;107013;1257;72800;-38
2024/04/21 08:54:13;;;;;;;1.40;1.30;;;;;;;8.68;91.19;97981.42;107249;1262;60493;-38
2024/04/21 08:56:44;;;;;;;1.90;1.70;;;;;;;8.73;91.28;97987.62;107235;1257;60299;-38
2024/04/21 08:59:12;;;;;;;1.30;1.20;;;;;;;8.76;91.41;97997.90;107257;1257;73713;-38
2024/04/21 09:01:39;;;;;;;1.50;1.20;;;;;;;8.77;91.29;97996.27;107213;1258;69019;-38
2024/04/21 09:04:07;;;;;;;1.40;1.10;;;;;;;8.79;90.94;97996.52;107157;1256;72828;-38
2024/04/21 09:06:35;;;;;;;1.60;1.10;;;;;;;8.80;90.69;97997.77;107094;1261;62035;-38
2024/04/21 09:09:03;;;;;;;2.00;1.50;;;;;;;8.80;90.39;97999.23;107167;1261;60265;-38
2024/04/21 09:11:30;;;;;;;2.00;1.40;;;;;;;8.82;90.42;97991.81;107115;1257;73992;-38
2024/04/21 09:13:59;;;;;;;1.30;1.20;;;;;;;8.82;90.47;97990.88;107137;1263;68466;-38
2024/04/21 09:16:26;;;;;;;1.70;1.50;;;;;;;8.82;90.83;97984.95;107199;1257;74891;-38
2024/04/21 09:18:54;;;;;;;3.80;2.60;;;;;;;8.82;90.76;97980.55;107151;1258;64329;-38
2024/04/21 09:21:22;;;;;;;1.80;1.30;;;;;;;8.84;90.75;97984.88;107229;1261;61324;-38
2024/04/21 09:23:49;;;;;;;3.00;1.60;;;;;;;8.87;90.64;97982.73;107183;1256;72661;-38
2024/04/21 09:26:17;;;;;;;1.20;1.10;;;;;;;8.91;90.70;97983.83;107218;1261;66946;-38
2024/04/21 09:28:49;;;;;;;2.80;1.50;;;;;;;8.96;90.81;97983.46;107154;1257;70551;-39
2024/04/21 09:31:17;;;;;;;1.60;1.50;;;;;;;9.00;90.67;97989.02;107113;1263;60339;-38
2024/04/21 09:33:45;;;;;;;1.20;1.10;;;;;;;9.05;90.70;97990.59;107118;1262;60405;-38
2024/04/21 09:36:12;;;;;;;5.80;2.10;;;;;;;9.10;90.46;97990.74;107062;1258;75129;-38
2024/04/21 09:38:40;;;;;;;2.30;1.70;;;;;;;9.05;90.49;97976.67;107301;1255;70539;-38
2024/04/21 09:41:08;;;;;;;1.80;1.60;;;;;;;9.12;90.45;97980.40;107197;1256;71562;-38
2024/04/21 09:43:36;;;;;;;2.30;1.90;;;;;;;9.13;90.15;97974.46;107114;1258;60956;-38
2024/04/21 09:46:03;;;;;;;2.70;2.30;;;;;;;9.16;90.11;97976.31;107211;1257;60558;-38
2024/04/21 09:48:31;;;;;;;2.40;1.80;;;;;;;9.19;90.27;97975.32;107186;1256;73093;-38
2024/04/21 09:50:58;;;;;;;1.60;1.40;;;;;;;9.23;90.27;97976.10;107069;1257;68211;-38
2024/04/21 09:53:26;;;;;;;3.90;1.70;;;;;;;9.26;90.18;97973.77;107249;1258;73058;-38
2024/04/21 09:55:55;;;;;;;2.90;1.90;;;;;;;9.29;90.17;97972.02;107275;1256;60917;-39
2024/04/21 09:58:26;;;;;;;1.30;1.10;;;;;;;9.32;90.05;97972.71;107292;1258;60539;-38
2024/04/21 10:00:53;;;;;;;1.30;1.20;;;;;;;9.34;89.75;97969.33;107075;1260;76069;-39
2024/04/21 10:03:22;;;;;;;2.60;1.60;;;;;;;9.32;89.64;97971.09;107315;1260;66310;-39
2024/04/21 10:05:51;;;;;;;1.40;1.30;;;;;;;9.31;89.83;97973.94;107136;1257;72817;-39
2024/04/21 10:08:19;;;;;;;1.50;1.10;;;;;;;9.31;89.79;97974.26;107336;1257;61021;-39
2024/04/21 10:10:51;;;;;;;1.50;1.30;;;;;;;9.33;89.76;97972.48;107181;1257;62169;-39
2024/04/21 10:13:19;;;;;;;2.00;1.40;;;;;;;9.33;89.66;97972.65;107243;1260;73871;-39
2024/04/21 10:15:47;;;;;;;1.80;1.50;;;;;;;9.32;89.52;97973.72;107179;1263;67179;-38
2024/04/21 10:18:20;;;;;;;2.20;1.70;;;;;;;9.33;89.82;97979.06;107249;1257;72906;-38
2024/04/21 10:20:48;;;;;;;2.40;1.30;;;;;;;9.37;89.92;97988.48;107268;1258;63885;-38
2024/04/21 10:23:16;;;;;;;1.10;1.00;;;;;;;9.43;89.82;97990.90;107199;1257;62336;-38
2024/04/21 10:25:44;;;;;;;3.30;1.90;;;;;;;9.43;89.68;97988.04;107117;1263;71825;-38
2024/04/21 10:28:13;;;;;;;1.90;1.80;;;;;;;9.40;89.79;97980.85;107257;1256;66933;-39
2024/04/21 10:30:41;;;;;;;1.90;1.70;;;;;;;9.45;89.84;97986.02;107255;1256;74918;-38
2024/04/21 10:33:15;;;;;;;2.40;1.90;;;;;;;9.49;89.84;97984.25;107268;1254;60507;-38
2024/04/21 10:35:43;;;;;;;1.90;1.70;;;;;;;9.51;89.66;97979.23;107327;1255;62212;-38
2024/04/21 10:38:12;;;;;;;2.60;2.00;;;;;;;9.54;89.67;97985.58;107367;1257;72670;-38
2024/04/21 10:40:42;;;;;;;2.90;1.80;;;;;;;9.59;89.70;97984.48;107373;1257;66894;-38
2024/04/21 10:43:09;;;;;;;1.90;1.70;;;;;;;9.63;89.45;97986.20;107315;1256;73042;-38
2024/04/21 10:45:38;;;;;;;2.00;1.70;;;;;;;9.62;89.40;97983.42;107357;1258;61128;-38
2024/04/21 10:48:07;;;;;;;2.90;1.50;;;;;;;9.61;89.43;97985.04;107301;1257;61691;-38
2024/04/21 10:50:36;;;;;;;1.80;1.70;;;;;;;9.63;89.39;97987.89;107404;1255;72398;-38
2024/04/21 10:53:04;;;;;;;2.90;2.10;;;;;;;9.67;89.18;97988.98;107397;1257;69835;-39
2024/04/21 10:55:32;;;;;;;2.70;1.70;;;;;;;9.70;89.12;97990.91;107310;1258;71516;-39
2024/04/21 10:58:00;;;;;;;2.00;1.80;;;;;;;9.74;88.71;97989.91;107337;1255;62357;-39
2024/04/21 11:00:28;;;;;;;3.70;2.30;;;;;;;9.75;88.85;97987.42;107339;1255;62149;-39
2024/04/21 11:02:56;;;;;;;2.70;2.30;;;;;;;9.73;89.08;97981.55;107313;1260;76010;-39
2024/04/21 11:05:27;;;;;;;2.70;2.00;;;;;;;9.73;89.30;97983.25;107337;1257;66780;-39
2024/04/21 11:07:55;;;;;;;2.30;2.00;;;;;;;9.76;89.30;97979.08;107226;1260;73158;-39
2024/04/21 11:10:25;;;;;;;2.50;2.00;;;;;;;9.80;89.11;97982.33;107237;1255;62008;-37
2024/04/21 11:12:52;;;;;;;2.50;1.90;;;;;;;9.82;88.96;97977.63;107256;1257;62241;-39
2024/04/21 11:15:20;;;;;;;2.10;1.60;;;;;;;9.84;88.77;97987.81;107294;1258;74482;-39
2024/04/21 11:18:00;;;;;;;2.40;1.60;;;;;;;9.84;88.75;97994.47;107302;1256;66787;-39
2024/04/21 11:20:27;;;;;;;;;;;;;;;9.86;88.79;97995.48;107347;1257;74646;-37
2024/04/21 11:22:55;;;;;;;2.80;1.80;;;;;;;9.85;88.59;97994.63;107304;1257;62297;-37
2024/04/21 11:25:22;;;;;;;2.50;2.00;;;;;;;9.76;88.37;97988.13;107310;1257;60391;-37
2024/04/21 11:27:50;;;;;;;2.90;1.70;;;;;;;9.78;88.62;97993.70;107228;1257;75980;-38
2024/04/21 11:30:21;;;;;;;1.80;1.50;;;;;;;9.83;88.68;97996.10;107227;1257;67805;-37
2024/04/21 11:32:49;;;;;;;1.60;1.10;;;;;;;9.85;88.35;97995.86;107236;1257;72840;-38
2024/04/21 11:35:18;;;;;;;1.50;1.40;;;;;;;9.85;88.32;97990.52;107276;1258;62563;-38
2024/04/21 11:37:48;;;;;;;1.90;1.20;;;;;;;9.87;88.35;97986.19;107305;1258;62104;-38